Flight Track Log - Related Links

Times and Time Zones

All times are in EDT time to prevent confusion due to time zone crossing. See the N441S flight status page for this flight to view local times or setup timezone preferences in your user account.

Time Position Orientation Groundspeed Altitude Reporting Facility
EDT Latitude Longitude Course Direction KTS MPH feet Rate Location/Type
Fri 11:41:00 AM 47.5003 -94.9320 170° South  Level Estimated
Fri 11:42:00 AM 47.4433 -94.9172 170° South  Level Estimated
Fri 11:43:00 AM 47.3864 -94.9024 170° South  Level Estimated
Fri 11:44:00 AM 47.3294 -94.8876 170° South  Level Estimated
Fri 11:45:00 AM 47.2725 -94.8729 170° South  Level Estimated
Fri 11:46:00 AM 47.2155 -94.8582 170° South  Level Estimated
Fri 11:47:00 AM 47.1586 -94.8435 170° South  Level Estimated
Fri 11:48:00 AM 47.1016 -94.8289 170° South  Level Estimated
Fri 11:49:00 AM 47.0447 -94.8143 170° South  Level Estimated
Fri 11:50:00 AM 46.9877 -94.7997 170° South  Level Estimated
Fri 11:51:00 AM 46.9307 -94.7852 170° South  Level Estimated
Fri 11:52:00 AM 46.8738 -94.7707 170° South  Level Estimated
Fri 11:53:00 AM 46.8168 -94.7562 170° South  Level Estimated
Fri 11:53:36 AM 47.4111 -94.9122 170° South 161 185 6,200  Level Minneapolis Center
Fri 11:54:00 AM 46.7598 -94.7417 170° South  Level Estimated
Fri 11:54:38 AM 47.3667 -94.9006 170° South 161 185 7,900  Level Minneapolis Center
Fri 11:55:00 AM 46.7029 -94.7273 170° South  Level Estimated
Fri 11:55:40 AM 47.3178 -94.8867 169° South 170 196 9,400  Level Minneapolis Center
Fri 11:56:00 AM 46.6459 -94.7129 170° South  Level Estimated
Fri 11:56:42 AM 47.2650 -94.8722 169° South 183 211 10,800  Level Minneapolis Center
Fri 11:57:00 AM 46.5889 -94.6986 170° South  Level Estimated
Fri 11:57:44 AM 47.2086 -94.8583 171° South 196 226 12,200  Level Minneapolis Center
Fri 11:58:00 AM 46.5319 -94.6842 170° South  Level Estimated
Fri 11:58:46 AM 47.1378 -94.8400 170° South 210 242 14,000  Level Minneapolis Center
Fri 12:00:03 PM 47.0775 -94.8247 170° South 217 250 15,600 1,371 Climbing Minneapolis Center
Fri 12:01:06 PM 47.0044 -94.8056 170° South 222 255 17,200 1,248 Climbing Minneapolis Center
Fri 12:02:08 PM 46.9394 -94.7897 171° South 234 269 18,200 1,016 Climbing Minneapolis Center
Fri 12:03:10 PM 46.8550 -94.7689 170° South 255 293 19,300 1,016 Climbing Minneapolis Center
Fri 12:04:12 PM 46.7833 -94.7503 170° South 262 302 20,300 968 Climbing Minneapolis Center
Fri 12:05:14 PM 46.7108 -94.7319 170° South 265 305 21,300 919 Climbing Minneapolis Center
Fri 12:06:16 PM 46.6394 -94.7139 170° South 262 302 22,200 774 Climbing Minneapolis Center
Fri 12:07:18 PM 46.5667 -94.6958 170° South 265 305 22,900 387 Climbing Minneapolis Center
Fri 12:08:20 PM 46.4903 -94.6775 171° South 276 318 23,000 48 Climbing Minneapolis Center
Fri 12:09:22 PM 46.3928 -94.6519 170° South 296 341 23,000  Level Minneapolis Center
Fri 12:10:24 PM 46.3111 -94.6300 169° South 299 344 23,000  Level Minneapolis Center
Fri 12:11:26 PM 46.2261 -94.6106 171° South 305 351 23,000  Level Minneapolis Center
Fri 12:12:28 PM 46.1328 -94.5850 169° South 305 351 23,000  Level Minneapolis Center
Fri 12:13:42 PM 46.0478 -94.5644 170° South 309 356 23,000  Level Minneapolis Center
Fri 12:14:45 PM 45.9478 -94.5403 170° South 307 353 23,000  Level Minneapolis Center
Fri 12:15:46 PM 45.8628 -94.5206 171° South 310 357 23,000  Level Minneapolis Center
Fri 12:16:48 PM 45.7794 -94.4992 170° South 307 353 23,000  Level Minneapolis Center
Fri 12:17:50 PM 45.7128 -94.4836 171° South 306 352 23,000  Level Minneapolis Center
Fri 12:18:52 PM 45.5972 -94.4528 169° South 303 349 23,000  Level Minneapolis Center
Fri 12:19:54 PM 45.5144 -94.4336 171° South 303 349 23,000  Level Minneapolis Center
Fri 12:20:56 PM 45.4322 -94.4136 170° South 302 348 23,000  Level Minneapolis Center
Fri 12:21:58 PM 45.3492 -94.3939 171° South 303 349 23,000  Level Minneapolis Center
Fri 12:23:13 PM 45.2492 -94.3708 171° South 305 351 23,000  Level Minneapolis Center
Fri 12:24:15 PM 45.1503 -94.3458 170° South 304 350 23,000  Level Minneapolis Center
Fri 12:25:17 PM 45.0686 -94.3272 171° South 300 345 23,000  Level Minneapolis Center
Fri 12:26:19 PM 44.9858 -94.3083 171° South 302 348 23,000  Level Minneapolis Center
Fri 12:27:21 PM 44.9044 -94.2886 170° South 301 346 23,000  Level Minneapolis Center
Fri 12:28:23 PM 44.8219 -94.2675 170° South 303 349 23,000  Level Minneapolis Center
Fri 12:29:25 PM 44.7222 -94.2447 171° South 304 350 23,000  Level Minneapolis Center
Fri 12:30:27 PM 44.6408 -94.2250 170° South 300 345 23,000  Level Minneapolis Center
Fri 12:31:29 PM 44.5597 -94.2061 171° South 299 344 23,000  Level Minneapolis Center
Fri 12:32:31 PM 44.4775 -94.1869 171° South 300 345 23,000  Level Minneapolis Center
Fri 12:33:33 PM 44.3958 -94.1686 171° South 299 344 23,000  Level Minneapolis Center
Fri 12:34:46 PM 44.2967 -94.1450 170° South 304 350 23,000  Level Minneapolis Center
Fri 12:35:49 PM 44.1983 -94.1228 171° South 301 346 23,000  Level Minneapolis Center
Fri 12:36:51 PM 44.1167 -94.1028 170° South 300 345 23,000  Level Minneapolis Center
Fri 12:37:53 PM 44.0350 -94.0853 171° South 300 345 23,000  Level Minneapolis Center
Fri 12:38:55 PM 43.9539 -94.0661 170° South 298 343 23,000  Level Minneapolis Center
Fri 12:39:57 PM 43.8569 -94.0436 170° South 294 338 23,000  Level Minneapolis Center
Fri 12:40:59 PM 43.7750 -94.0256 171° South 298 343 23,000  Level Minneapolis Center
Fri 12:42:01 PM 43.6950 -94.0072 171° South 293 337 23,000  Level Minneapolis Center
Fri 12:43:03 PM 43.6133 -93.9889 171° South 297 342 23,000  Level Minneapolis Center
Fri 12:44:05 PM 43.5267 -93.9689 171° South 295 339 23,000  Level Minneapolis Center
Fri 12:45:07 PM 43.4472 -93.9511 171° South 293 337 23,000  Level Minneapolis Center
Fri 12:46:09 PM 43.3667 -93.9331 171° South 294 338 23,000 -48 Level Minneapolis Center
Fri 12:47:11 PM 43.2867 -93.9144 170° South 294 338 22,900 -484 Descending Minneapolis Center
Fri 12:48:13 PM 43.1861 -93.8917 171° South 305 351 22,000 -823 Descending Minneapolis Center
Fri 12:49:15 PM 43.0994 -93.8728 171° South 315 362 21,200 -788 Descending Minneapolis Center
Fri 12:50:30 PM 42.9947 -93.8494 171° South 319 367 20,200 -788 Descending Minneapolis Center
Fri 12:51:32 PM 42.9081 -93.8322 172° South 318 366 19,400 -823 Descending Minneapolis Center
Fri 12:52:34 PM 42.8042 -93.8092 171° South 319 367 18,500 -871 Descending Minneapolis Center
Fri 12:53:36 PM 42.7150 -93.7900 171° South 326 375 17,600 -871 Descending Minneapolis Center
Fri 12:54:38 PM 42.6306 -93.7711 171° South 315 362 16,700 -1,016 Descending Minneapolis Center
Fri 12:55:40 PM 42.5472 -93.7533 171° South 307 353 15,500 -1,306 Descending Minneapolis Center
Fri 12:56:42 PM 42.4556 -93.7314 170° South 294 338 14,000 -1,452 Descending Minneapolis Center
Fri 12:57:44 PM 42.3786 -93.7156 171° South 280 322 12,500 -1,500 Descending Minneapolis Center
Fri 12:58:46 PM 42.2981 -93.6978 171° South 273 314 10,900 -1,500 Descending Minneapolis Center
Fri 12:59:48 PM 42.2247 -93.6792 169° South 270 311 9,400 -1,452 Descending Minneapolis Center
Fri 01:00:50 PM 42.1550 -93.6539 165° South 258 297 7,900 -1,230 Descending Minneapolis Center
Fri 01:01:50 PM 42.0875 -93.6436 174° South 246 283 6,900 -912 Descending Minneapolis Center
Fri 01:02:55 PM 42.0144 -93.6347 175° South 232 267 6,000 -793 Descending Minneapolis Center
Fri 01:03:51 PM 41.9661 -93.6017 153° Southeast 226 260 5,300 -484 Descending Minneapolis Center
Fri 01:04:59 PM 41.8975 -93.5875 171° South 216 249 5,000 -148 Descending Minneapolis Center
Fri 01:05:53 PM 41.8511 -93.5594 156° South 209 241 5,000  Level Minneapolis Center
Fri 01:06:47 PM 41.8042 -93.5417 164° South 202 232 5,000 -86 Level Minneapolis Center
Fri 01:07:03 PM 41.7844 -93.5453 188° South 201 231 4,900 -787 Descending Minneapolis Center
Fri 01:07:48 PM 41.7467 -93.5192 153° Southeast 207 238 4,200 -968 Descending Minneapolis Center
Fri 01:08:05 PM 41.7208 -93.5225 186° South 217 250 3,900 -885 Descending Minneapolis Center
Fri 01:08:49 PM 41.6847 -93.4972 152° Southeast 229 264 3,300 -774 Descending Minneapolis Center
Fri 01:09:07 PM 41.6594 -93.4986 182° South 229 264 3,100 -300 Descending Minneapolis Center
Fri 01:09:49 PM 41.6253 -93.4778 155° Southeast 221 254 3,000 -97 Descending Minneapolis Center
Fri 01:10:09 PM 41.5992 -93.4872 195° South 201 231 3,000  Level Minneapolis Center
Fri 01:10:50 PM 41.5753 -93.4797 167° South 182 209 3,000  Level Minneapolis Center
Fri 01:11:11 PM 41.5508 -93.4881 194° South 177 204 3,000  Level Minneapolis Center
Fri 01:11:51 PM 41.5275 -93.4844 173° South 172 198 3,000  Level Minneapolis Center
Fri 01:12:13 PM 41.5167 -93.5128 243° Southwest 158 182 3,000  Level Minneapolis Center
Fri 01:12:45 PM 41.5175 -93.5325 273° West 152 175 3,000 -97 Level Minneapolis Center
Fri 01:13:15 PM 41.5222 -93.5619 282° West 141 162 2,900 -393 Descending Minneapolis Center
Fri 01:13:46 PM 41.5439 -93.5578 North 135 155 2,600 -387 Descending Minneapolis Center
Fri 01:14:17 PM 41.5583 -93.5672 334° Northwest 133 153 2,500 -100 Descending Minneapolis Center
Fri 01:14:46 PM 41.5836 -93.5569 17° North 134 154 2,500  Level Minneapolis Center
Fri 01:15:19 PM 41.5964 -93.5664 331° Northwest 128 147 2,500 -197 Level Minneapolis Center
Fri 01:15:47 PM 41.6192 -93.5564 18° North 126 145 2,300 -405 Descending Minneapolis Center
Fri 01:16:33 PM 41.6306 -93.5669 325° Northwest 124 143 2,000 -590 Descending Minneapolis Center
Fri 01:16:48 PM 41.6525 -93.5589 15° North 126 145 1,700 -762 Descending Minneapolis Center
Fri 01:17:36 PM 41.6731 -93.5664 345° North 123 142 1,200 -327 Descending Minneapolis Center
Fri 01:18:38 PM 41.7036 -93.5650 North 122 140 1,100 -97 Descending Minneapolis Center

Login

Don't have an account? Register now (free) for customized features, flight alerts, and more!